createdAt,value
2023-02-14T00:01:25.811Z,98305.81
2023-02-14T00:03:54.700Z,98308.03
2023-02-14T00:06:22.465Z,98299.97
2023-02-14T00:08:52.324Z,98287.91
2023-02-14T00:11:20.141Z,98282.34
2023-02-14T00:14:02.095Z,98300.16
2023-02-14T00:16:31.552Z,98305.47
2023-02-14T00:19:05.996Z,98295.41
2023-02-14T00:21:36.958Z,98299.09
2023-02-14T00:24:05.318Z,98300.22
2023-02-14T00:26:33.186Z,98230.66
2023-02-14T00:29:01.001Z,98304.25
2023-02-14T00:31:28.902Z,98304.97
2023-02-14T00:33:58.205Z,98299.88
2023-02-14T00:36:26.406Z,98306.69
2023-02-14T00:38:54.328Z,98300.28
2023-02-14T00:41:22.319Z,98291.16
2023-02-14T00:43:51.637Z,98295.63
2023-02-14T00:46:20.486Z,98313.53
2023-02-14T00:48:48.975Z,98317.53
2023-02-14T00:51:18.828Z,98303.22
2023-02-14T00:53:47.757Z,98309.69
2023-02-14T00:56:16.416Z,98321.22
2023-02-14T00:58:44.966Z,98314.81
2023-02-14T01:01:13.511Z,98313.03
2023-02-14T01:03:41.337Z,98311.50
2023-02-14T01:06:10.001Z,98312.28
2023-02-14T01:08:39.209Z,98312.53
2023-02-14T01:11:12.756Z,98300.97
2023-02-14T01:13:41.113Z,98309.47
2023-02-14T01:16:10.935Z,98319.94
2023-02-14T01:18:39.114Z,98312.50
2023-02-14T01:21:15.720Z,98315.66
2023-02-14T01:23:45.599Z,98320.47
2023-02-14T01:26:13.934Z,98318.59
2023-02-14T01:28:42.434Z,98240.94
2023-02-14T01:31:13.307Z,98308.13
2023-02-14T01:33:42.835Z,98301.06
2023-02-14T01:36:17.035Z,98302.09
2023-02-14T01:38:46.325Z,98306.50
2023-02-14T01:41:14.799Z,98299.13
2023-02-14T01:43:58.248Z,98303.41
2023-02-14T01:46:27.286Z,98293.03
2023-02-14T01:49:00.357Z,98285.31
2023-02-14T01:51:28.554Z,98289.94
2023-02-14T01:53:58.790Z,98287.97
2023-02-14T01:56:33.458Z,98278.44
2023-02-14T01:59:04.034Z,98288.34
2023-02-14T02:01:32.598Z,98270.22
2023-02-14T02:04:06.466Z,98290.00
2023-02-14T02:06:38.921Z,98284.97
2023-02-14T02:09:14.156Z,98285.50
2023-02-14T02:11:43.525Z,98287.13
2023-02-14T02:14:15.538Z,98277.81
2023-02-14T02:16:48.476Z,98286.06
2023-02-14T02:19:49.419Z,98266.16
2023-02-14T02:22:51.263Z,98272.41
2023-02-14T02:25:41.869Z,98280.69
2023-02-14T02:28:38.695Z,98281.72
2023-02-14T02:31:32.452Z,98269.19
2023-02-14T02:34:19.789Z,98269.38
2023-02-14T02:37:13.806Z,98272.03
2023-02-14T02:39:59.152Z,98262.00
2023-02-14T02:42:35.322Z,98266.75
2023-02-14T02:45:13.140Z,98263.91
2023-02-14T02:47:45.700Z,98267.97
2023-02-14T02:50:41.157Z,98259.38
2023-02-14T02:53:21.299Z,98237.38
2023-02-14T02:56:12.062Z,98246.94
2023-02-14T02:58:43.980Z,98245.84
2023-02-14T03:01:15.347Z,98250.47
2023-02-14T03:04:05.634Z,98250.53
2023-02-14T03:06:35.094Z,98237.47
2023-02-14T03:09:13.319Z,98242.34
2023-02-14T03:11:49.922Z,98252.97
2023-02-14T03:14:21.578Z,98242.22
2023-02-14T03:17:05.010Z,98258.41
2023-02-14T03:20:00.491Z,98259.44
2023-02-14T03:22:40.573Z,98262.31
2023-02-14T03:25:18.714Z,98253.00
2023-02-14T03:27:51.042Z,98256.41
2023-02-14T03:30:26.740Z,98251.34
2023-02-14T03:33:00.931Z,98256.00
2023-02-14T03:35:33.593Z,98253.91
2023-02-14T03:38:09.304Z,98242.19
2023-02-14T03:40:43.645Z,98242.13
2023-02-14T03:43:15.073Z,98258.00
2023-02-14T03:45:48.701Z,98254.72
2023-02-14T03:48:18.664Z,98244.59
2023-02-14T03:50:48.944Z,98233.84
2023-02-14T03:53:21.256Z,98247.09
2023-02-14T03:56:02.782Z,98263.16
2023-02-14T03:58:35.366Z,98269.69
2023-02-14T04:01:09.149Z,98254.63
2023-02-14T04:03:45.283Z,98258.31
2023-02-14T04:06:13.392Z,98238.81
2023-02-14T04:08:41.206Z,98254.44
2023-02-14T04:11:10.435Z,98257.72
2023-02-14T04:13:40.068Z,98258.44
2023-02-14T04:16:08.437Z,98257.31
2023-02-14T04:18:53.932Z,98267.53
2023-02-14T04:21:21.780Z,98262.09
2023-02-14T04:23:49.531Z,98260.06
2023-02-14T04:26:18.796Z,98255.78
2023-02-14T04:28:46.644Z,98250.13
2023-02-14T04:31:14.569Z,98254.31
2023-02-14T04:33:42.668Z,98246.19
2023-02-14T04:36:10.968Z,98228.63
2023-02-14T04:38:38.759Z,98255.06
2023-02-14T04:41:06.857Z,98234.91
2023-02-14T04:43:36.004Z,98248.47
2023-02-14T04:46:03.794Z,98240.63
2023-02-14T04:48:31.757Z,98252.94
2023-02-14T04:51:00.056Z,98256.88
2023-02-14T04:53:28.286Z,98248.19
2023-02-14T04:55:56.172Z,98252.25
2023-02-14T04:58:24.208Z,98240.03
2023-02-14T05:00:53.643Z,98239.91
2023-02-14T05:03:21.620Z,98259.31
2023-02-14T05:05:49.421Z,98246.81
2023-02-14T05:08:17.222Z,98262.31
2023-02-14T05:10:44.990Z,98253.31
2023-02-14T05:13:12.687Z,98254.25
2023-02-14T05:15:40.577Z,98247.66
2023-02-14T05:18:10.459Z,98249.00
2023-02-14T05:20:40.754Z,98258.88
2023-02-14T05:23:13.737Z,98251.38
2023-02-14T05:25:41.721Z,98261.09
2023-02-14T05:28:10.019Z,98260.59
2023-02-14T05:30:39.690Z,98261.94
2023-02-14T05:33:11.076Z,98252.38
2023-02-14T05:35:38.983Z,98265.00
2023-02-14T05:38:07.070Z,98254.59
2023-02-14T05:40:34.932Z,98265.75
2023-02-14T05:43:02.934Z,98268.75
2023-02-14T05:45:31.008Z,98277.97
2023-02-14T05:48:00.927Z,98272.16
2023-02-14T05:50:31.173Z,98265.09
2023-02-14T05:52:59.136Z,98284.16
2023-02-14T05:55:27.267Z,98280.56
2023-02-14T05:57:55.257Z,98279.81
2023-02-14T06:00:25.039Z,98269.28
2023-02-14T06:02:52.866Z,98269.22
2023-02-14T06:05:20.772Z,98273.19
2023-02-14T06:07:51.410Z,98268.31
2023-02-14T06:10:19.951Z,98270.22
2023-02-14T06:12:50.125Z,98254.06
2023-02-14T06:15:18.264Z,98251.16
2023-02-14T06:17:47.257Z,98244.16
2023-02-14T06:20:15.248Z,98263.03
2023-02-14T06:22:43.328Z,98275.13
2023-02-14T06:25:12.591Z,98277.53
2023-02-14T06:27:40.719Z,98273.53
2023-02-14T06:30:10.201Z,98283.84
2023-02-14T06:32:38.113Z,98276.91
2023-02-14T06:35:06.629Z,98268.72
2023-02-14T06:37:34.701Z,98282.06
2023-02-14T06:40:02.809Z,98289.91
2023-02-14T06:42:31.980Z,98295.50
2023-02-14T06:44:59.953Z,98303.00
2023-02-14T06:47:28.043Z,98301.00
2023-02-14T06:49:55.893Z,98296.53
2023-02-14T06:52:23.672Z,98295.25
2023-02-14T06:54:51.446Z,98303.00
2023-02-14T06:57:19.279Z,98315.09
2023-02-14T06:59:48.627Z,98309.38
2023-02-14T07:02:16.513Z,98313.19
2023-02-14T07:04:44.366Z,98310.34
2023-02-14T07:07:12.251Z,98314.91
2023-02-14T07:09:40.208Z,98318.44
2023-02-14T07:12:08.370Z,98299.34
2023-02-14T07:14:37.486Z,98308.78
2023-02-14T07:17:06.772Z,98301.63
2023-02-14T07:19:34.776Z,98286.97
2023-02-14T07:22:02.521Z,98306.84
2023-02-14T07:24:30.435Z,98294.31
2023-02-14T07:26:58.325Z,98307.66
2023-02-14T07:29:26.262Z,98309.44
2023-02-14T07:31:54.255Z,98297.13
2023-02-14T07:34:23.630Z,98300.16
2023-02-14T07:36:51.427Z,98297.47
2023-02-14T07:39:19.229Z,98300.88
2023-02-14T07:41:47.167Z,98299.22
2023-02-14T07:44:14.957Z,98292.41
2023-02-14T07:46:42.863Z,98273.97
2023-02-14T07:49:10.741Z,98289.69
2023-02-14T07:51:40.260Z,98278.78
2023-02-14T07:54:08.235Z,98280.75
2023-02-14T07:56:36.328Z,98295.91
2023-02-14T07:59:04.355Z,98279.97
2023-02-14T08:01:32.167Z,98288.88
2023-02-14T08:04:00.128Z,98289.75
2023-02-14T08:06:28.027Z,98275.81
2023-02-14T08:08:57.255Z,98260.06
2023-02-14T08:11:42.660Z,98271.66
2023-02-14T08:14:10.501Z,98275.25
2023-02-14T08:16:39.725Z,98271.72
2023-02-14T08:19:07.642Z,98272.53
2023-02-14T08:21:35.772Z,98281.78
2023-02-14T08:24:05.607Z,98292.31
2023-02-14T08:26:33.672Z,98273.22
2023-02-14T08:29:03.125Z,98283.41
2023-02-14T08:31:35.964Z,98277.69
2023-02-14T08:34:05.066Z,98280.84
2023-02-14T08:36:33.284Z,98274.56
2023-02-14T08:39:01.467Z,98280.69
2023-02-14T08:41:30.660Z,98248.75
2023-02-14T08:43:58.495Z,98273.28
2023-02-14T08:46:26.541Z,98275.50
2023-02-14T08:48:54.878Z,98269.03
2023-02-14T08:51:23.012Z,98267.28
2023-02-14T08:53:51.696Z,98268.16
2023-02-14T08:56:21.368Z,98267.88
2023-02-14T08:58:53.349Z,98255.44
2023-02-14T09:01:21.596Z,98269.63
2023-02-14T09:03:49.730Z,98277.22
2023-02-14T09:06:18.394Z,98270.41
2023-02-14T09:08:46.793Z,98278.34
2023-02-14T09:11:18.498Z,98257.44
2023-02-14T09:13:47.702Z,98262.16
2023-02-14T09:16:19.050Z,98262.31
2023-02-14T09:18:48.533Z,98254.09
2023-02-14T09:21:20.352Z,98258.19
2023-02-14T09:23:48.211Z,98248.41
2023-02-14T09:26:17.621Z,98247.84
2023-02-14T09:28:45.858Z,98255.97
2023-02-14T09:31:17.229Z,98249.47
2023-02-14T09:33:46.298Z,98254.22
2023-02-14T09:36:31.853Z,98247.09
2023-02-14T09:38:59.632Z,98245.63
2023-02-14T09:41:43.601Z,98263.09
2023-02-14T09:44:19.892Z,98242.53
2023-02-14T09:46:53.551Z,98243.44
2023-02-14T09:49:29.842Z,98246.78
2023-02-14T09:51:58.543Z,98251.75
2023-02-14T09:54:29.061Z,98245.72
2023-02-14T09:57:02.729Z,98249.94
2023-02-14T09:59:36.937Z,98235.31
2023-02-14T10:02:26.176Z,98253.69
2023-02-14T10:05:03.261Z,98243.59
2023-02-14T10:07:38.703Z,98241.22
2023-02-14T10:10:14.853Z,98240.16
2023-02-14T10:12:49.107Z,98236.03
2023-02-14T10:15:20.169Z,98228.28
2023-02-14T10:17:54.628Z,98212.44
2023-02-14T10:20:27.281Z,98220.75
2023-02-14T10:23:04.670Z,98218.41
2023-02-14T10:25:38.538Z,98220.75
2023-02-14T10:28:07.223Z,98208.53
2023-02-14T10:30:39.983Z,98223.69
2023-02-14T10:33:16.677Z,98212.44
2023-02-14T10:35:49.135Z,98218.66
2023-02-14T10:38:29.329Z,98221.88
2023-02-14T10:41:19.617Z,98211.66
2023-02-14T10:43:54.983Z,98202.66
2023-02-14T10:46:34.272Z,98196.97
2023-02-14T10:49:14.373Z,98195.16
2023-02-14T10:51:47.003Z,98195.19
2023-02-14T10:54:21.580Z,98196.38
2023-02-14T10:56:55.341Z,98195.72
2023-02-14T10:59:28.938Z,98190.25
2023-02-14T11:01:59.960Z,98196.31
2023-02-14T11:04:30.967Z,98181.25
2023-02-14T11:06:58.715Z,98185.22
2023-02-14T11:09:26.465Z,98171.53
2023-02-14T11:11:57.394Z,98167.50
2023-02-14T11:14:30.036Z,98168.41
2023-02-14T11:16:59.708Z,98166.16
2023-02-14T11:19:31.024Z,98159.06
2023-02-14T11:22:00.820Z,98154.53
2023-02-14T11:24:31.289Z,98157.13
2023-02-14T11:27:02.848Z,98152.66
2023-02-14T11:29:32.784Z,98144.94
2023-02-14T11:32:09.339Z,98080.72
2023-02-14T11:34:41.800Z,98129.94
2023-02-14T11:37:26.320Z,98118.91
2023-02-14T11:39:56.005Z,98112.88
2023-02-14T11:42:42.632Z,98121.56
2023-02-14T11:45:28.641Z,98113.72
2023-02-14T11:48:10.567Z,98109.31
2023-02-14T11:50:40.459Z,98094.41
2023-02-14T11:53:13.124Z,98107.59
2023-02-14T11:55:42.178Z,98098.41
2023-02-14T11:58:29.921Z,98088.72
2023-02-14T12:00:57.936Z,98094.19
2023-02-14T12:03:28.229Z,98093.47
2023-02-14T12:06:00.758Z,98088.47
2023-02-14T12:08:31.786Z,98094.75
2023-02-14T12:11:04.404Z,98089.63
2023-02-14T12:13:33.645Z,98088.50
2023-02-14T12:16:01.528Z,98072.03
2023-02-14T12:18:41.977Z,98081.00
2023-02-14T12:21:26.025Z,98076.78
2023-02-14T12:24:03.350Z,98071.78
2023-02-14T12:26:34.935Z,98062.22
2023-02-14T12:29:10.920Z,98054.03
2023-02-14T12:31:38.795Z,98054.44
2023-02-14T12:34:07.273Z,98051.91
2023-02-14T12:36:47.078Z,98053.97
2023-02-14T12:39:26.852Z,98040.47
2023-02-14T12:42:03.504Z,98041.97
2023-02-14T12:44:45.202Z,98030.53
2023-02-14T12:47:20.308Z,98031.78
2023-02-14T12:50:18.602Z,98029.88
2023-02-14T12:53:02.417Z,98015.38
2023-02-14T12:55:47.057Z,98005.56
2023-02-14T12:58:25.227Z,98007.03
2023-02-14T13:01:06.352Z,97994.22
2023-02-14T13:04:01.075Z,98005.91
2023-02-14T13:06:31.562Z,98003.03
2023-02-14T13:09:14.863Z,97999.75
2023-02-14T13:11:53.050Z,97994.66
2023-02-14T13:14:37.901Z,97980.31
2023-02-14T13:17:13.236Z,97982.63
2023-02-14T13:19:49.173Z,97993.75
2023-02-14T13:22:21.655Z,97972.38
2023-02-14T13:24:54.821Z,97985.41
2023-02-14T13:27:24.913Z,97978.13
2023-02-14T13:29:59.210Z,97984.09
2023-02-14T13:32:30.583Z,97983.09
2023-02-14T13:34:59.603Z,97973.59
2023-02-14T13:37:29.530Z,97967.97
2023-02-14T13:40:02.421Z,97980.72
2023-02-14T13:42:56.494Z,97974.88
2023-02-14T13:46:06.843Z,97969.50
2023-02-14T13:48:34.800Z,97972.03
2023-02-14T13:51:05.082Z,97952.50
2023-02-14T13:53:39.486Z,97957.75
2023-02-14T13:56:34.002Z,97968.72
2023-02-14T13:59:05.489Z,97970.44
2023-02-14T14:01:36.917Z,97976.09
2023-02-14T14:04:07.478Z,97958.59
2023-02-14T14:07:13.939Z,97963.44
2023-02-14T14:10:32.343Z,97961.03
2023-02-14T14:13:01.500Z,97964.75
2023-02-14T14:15:29.701Z,97951.88
2023-02-14T14:18:32.924Z,97959.03
2023-02-14T14:21:00.770Z,97953.09
2023-02-14T14:23:34.428Z,97949.09
2023-02-14T14:26:03.369Z,97945.13
2023-02-14T14:28:34.207Z,97942.47
2023-02-14T14:31:02.217Z,97944.63
2023-02-14T14:33:32.286Z,97945.06
2023-02-14T14:36:02.827Z,97951.19
2023-02-14T14:38:32.105Z,97950.66
2023-02-14T14:41:01.215Z,97945.03
2023-02-14T14:43:34.755Z,97934.78
2023-02-14T14:46:04.114Z,97921.53
2023-02-14T14:48:34.739Z,97930.00
2023-02-14T14:51:05.196Z,97932.34
2023-02-14T14:53:42.106Z,97934.97
2023-02-14T14:56:13.992Z,97929.84
2023-02-14T14:58:43.265Z,97926.25
2023-02-14T15:01:21.179Z,97928.84
2023-02-14T15:03:49.982Z,97929.03
2023-02-14T15:06:20.776Z,97933.19
2023-02-14T15:08:51.492Z,97923.41
2023-02-14T15:11:41.547Z,97914.44
2023-02-14T15:14:16.504Z,97917.59
2023-02-14T15:16:48.813Z,97934.34
2023-02-14T15:19:22.191Z,97923.91
2023-02-14T15:21:50.988Z,97930.19
2023-02-14T15:24:20.515Z,97925.03
2023-02-14T15:26:53.356Z,97914.75
2023-02-14T15:29:24.959Z,97915.88
2023-02-14T15:31:53.907Z,97919.03
2023-02-14T15:34:31.089Z,97919.84
2023-02-14T15:37:03.969Z,97910.59
2023-02-14T15:39:37.832Z,97916.25
2023-02-14T15:42:06.975Z,97909.13
2023-02-14T15:44:36.278Z,97897.03
2023-02-14T15:47:06.801Z,97903.00
2023-02-14T15:49:37.237Z,97907.56
2023-02-14T15:52:06.738Z,97908.81
2023-02-14T15:54:38.964Z,97909.16
2023-02-14T15:57:08.802Z,97898.50
2023-02-14T15:59:42.775Z,97910.16
2023-02-14T16:02:25.745Z,97906.50
2023-02-14T16:04:53.855Z,97907.81
2023-02-14T16:07:25.462Z,97907.97
2023-02-14T16:10:24.096Z,97901.78
2023-02-14T16:12:57.721Z,97919.19
2023-02-14T16:15:28.811Z,97906.81
2023-02-14T16:17:56.817Z,97905.22
2023-02-14T16:20:30.345Z,97918.44
2023-02-14T16:23:21.942Z,97918.34
2023-02-14T16:25:50.939Z,97908.19
2023-02-14T16:28:19.133Z,97919.31
2023-02-14T16:30:54.072Z,97921.09
2023-02-14T16:33:24.241Z,97909.94
2023-02-14T16:35:52.370Z,97916.88
2023-02-14T16:38:21.662Z,97916.06
2023-02-14T16:40:51.911Z,97903.19
2023-02-14T16:43:21.369Z,97919.09
2023-02-14T16:45:50.726Z,97910.72
2023-02-14T16:48:18.744Z,97918.47
2023-02-14T16:50:47.578Z,97925.59
2023-02-14T16:53:26.626Z,97927.19
2023-02-14T16:55:56.964Z,97930.50
2023-02-14T16:58:28.253Z,97925.91
2023-02-14T17:00:58.733Z,97929.34
2023-02-14T17:03:26.782Z,97930.63
2023-02-14T17:05:56.011Z,97940.91
2023-02-14T17:08:24.055Z,97932.31
2023-02-14T17:10:52.371Z,97939.88
2023-02-14T17:13:24.005Z,97926.69
2023-02-14T17:15:52.253Z,97934.47
2023-02-14T17:18:24.385Z,97930.47
2023-02-14T17:20:52.404Z,97936.72
2023-02-14T17:23:20.817Z,97929.34
2023-02-14T17:25:49.154Z,97929.75
2023-02-14T17:28:17.231Z,97947.25
2023-02-14T17:30:45.046Z,97941.03
2023-02-14T17:33:13.502Z,97933.78
2023-02-14T17:35:42.751Z,97949.06
2023-02-14T17:38:10.981Z,97949.66
2023-02-14T17:40:38.850Z,97931.78
2023-02-14T17:43:07.177Z,97941.53
2023-02-14T17:45:36.473Z,97937.25
2023-02-14T17:48:04.358Z,97945.56
2023-02-14T17:50:32.081Z,97945.03
2023-02-14T17:53:01.214Z,97936.47
2023-02-14T17:55:29.009Z,97932.84
2023-02-14T17:57:56.881Z,97932.09
2023-02-14T18:00:25.419Z,97944.28
2023-02-14T18:02:53.198Z,97947.88
2023-02-14T18:05:21.064Z,97939.16
2023-02-14T18:07:48.810Z,97940.16
2023-02-14T18:10:18.288Z,97958.44
2023-02-14T18:12:46.153Z,97952.34
2023-02-14T18:15:13.964Z,97952.19
2023-02-14T18:17:41.914Z,97952.63
2023-02-14T18:20:10.732Z,97958.19
2023-02-14T18:22:38.535Z,97897.72
2023-02-14T18:25:07.563Z,97951.47
2023-02-14T18:27:36.685Z,97936.00
2023-02-14T18:30:05.179Z,97939.28
2023-02-14T18:32:33.177Z,97934.53
2023-02-14T18:35:01.559Z,97939.69
2023-02-14T18:37:29.416Z,97930.38
2023-02-14T18:39:57.153Z,97941.75
2023-02-14T18:42:24.865Z,97941.34
2023-02-14T18:44:54.793Z,97926.81
2023-02-14T18:47:22.678Z,97923.91
2023-02-14T18:49:50.724Z,97934.16
2023-02-14T18:52:18.467Z,97938.78
2023-02-14T18:54:46.321Z,97931.56
2023-02-14T18:57:14.131Z,97914.78
2023-02-14T18:59:41.866Z,97933.91
2023-02-14T19:02:12.067Z,97927.66
2023-02-14T19:04:39.919Z,97920.06
2023-02-14T19:07:07.720Z,97915.75
2023-02-14T19:09:39.449Z,97930.72
2023-02-14T19:12:07.661Z,97915.09
2023-02-14T19:14:35.607Z,97920.75
2023-02-14T19:17:04.588Z,97927.84
2023-02-14T19:19:33.876Z,97919.09
2023-02-14T19:22:02.213Z,97927.44
2023-02-14T19:24:30.029Z,97932.09
2023-02-14T19:26:57.872Z,97920.75
2023-02-14T19:29:25.651Z,97924.94
2023-02-14T19:31:54.805Z,97926.16
2023-02-14T19:34:28.922Z,97913.00
2023-02-14T19:37:00.512Z,97934.47
2023-02-14T19:39:30.454Z,97939.06
2023-02-14T19:41:59.170Z,97928.09
2023-02-14T19:44:28.821Z,97918.81
2023-02-14T19:46:59.857Z,97917.13
2023-02-14T19:49:29.257Z,97922.69
2023-02-14T19:51:59.725Z,97922.38
2023-02-14T19:54:27.553Z,97904.69
2023-02-14T19:56:56.490Z,97910.38
2023-02-14T19:59:24.415Z,97914.63
2023-02-14T20:01:54.440Z,97908.00
2023-02-14T20:04:24.332Z,97910.88
2023-02-14T20:06:54.386Z,97907.56
2023-02-14T20:09:24.713Z,97905.19
2023-02-14T20:11:54.773Z,97902.28
2023-02-14T20:14:24.481Z,97903.41
2023-02-14T20:16:53.578Z,97884.25
2023-02-14T20:19:24.349Z,97894.41
2023-02-14T20:21:52.420Z,97891.75
2023-02-14T20:24:23.425Z,97890.78
2023-02-14T20:26:53.592Z,97887.47
2023-02-14T20:29:22.275Z,97884.97
2023-02-14T20:31:52.553Z,97876.91
2023-02-14T20:34:21.327Z,97883.44
2023-02-14T20:36:53.189Z,97881.91
2023-02-14T20:39:21.166Z,97888.41
2023-02-14T20:41:49.969Z,97886.88
2023-02-14T20:44:21.616Z,97882.72
2023-02-14T20:46:51.608Z,97879.66
2023-02-14T20:49:19.812Z,97888.53
2023-02-14T20:51:49.616Z,97882.53
2023-02-14T20:54:18.175Z,97890.13
2023-02-14T20:56:46.018Z,97880.44
2023-02-14T20:59:14.516Z,97881.28
2023-02-14T21:01:43.703Z,97880.44
2023-02-14T21:04:11.568Z,97876.16
2023-02-14T21:06:40.170Z,97885.56
2023-02-14T21:09:08.630Z,97865.88
2023-02-14T21:11:36.804Z,97873.72
2023-02-14T21:14:04.797Z,97864.41
2023-02-14T21:16:32.756Z,97866.38
2023-02-14T21:19:02.063Z,97853.22
2023-02-14T21:21:34.778Z,97859.56
2023-02-14T21:24:06.008Z,97858.84
2023-02-14T21:26:33.976Z,97858.16
2023-02-14T21:29:02.707Z,97871.22
2023-02-14T21:31:32.519Z,97864.28
2023-02-14T21:34:03.251Z,97850.81
2023-02-14T21:36:35.225Z,97868.28
2023-02-14T21:39:03.763Z,97870.53
2023-02-14T21:41:32.071Z,97870.53
2023-02-14T21:44:01.111Z,97795.41
2023-02-14T21:46:31.088Z,97859.47
2023-02-14T21:49:19.951Z,97861.66
2023-02-14T21:51:48.279Z,97847.25
2023-02-14T21:54:16.747Z,97857.81
2023-02-14T21:56:44.762Z,97848.81
2023-02-14T21:59:12.944Z,97865.72
2023-02-14T22:01:42.940Z,97849.38
2023-02-14T22:04:14.313Z,97856.41
2023-02-14T22:06:47.132Z,97833.72
2023-02-14T22:09:19.016Z,97823.47
2023-02-14T22:11:47.579Z,97814.47
2023-02-14T22:14:16.325Z,97845.09
2023-02-14T22:16:44.244Z,97848.69
2023-02-14T22:19:16.285Z,97859.09
2023-02-14T22:21:43.925Z,97852.44
2023-02-14T22:24:12.743Z,97827.22
2023-02-14T22:26:41.738Z,97847.56
2023-02-14T22:29:11.341Z,97834.94
2023-02-14T22:31:41.188Z,97837.75
2023-02-14T22:34:15.303Z,97842.06
2023-02-14T22:36:43.405Z,97844.53
2023-02-14T22:39:13.488Z,97826.28
2023-02-14T22:41:41.434Z,97840.09
2023-02-14T22:44:09.716Z,97837.19
2023-02-14T22:46:40.450Z,97833.19
2023-02-14T22:49:09.044Z,97824.16
2023-02-14T22:51:40.619Z,97834.28
2023-02-14T22:54:15.383Z,97825.28
2023-02-14T22:56:44.642Z,97839.13
2023-02-14T22:59:16.238Z,97816.00
2023-02-14T23:01:45.447Z,97827.38
2023-02-14T23:04:14.344Z,97803.13
2023-02-14T23:06:45.062Z,97814.06
2023-02-14T23:09:14.177Z,97825.00
2023-02-14T23:11:44.439Z,97825.16
2023-02-14T23:14:31.421Z,97808.09
2023-02-14T23:17:17.193Z,97813.81
2023-02-14T23:20:03.513Z,97821.81
2023-02-14T23:22:35.041Z,97806.31
2023-02-14T23:25:04.629Z,97797.44
2023-02-14T23:27:35.308Z,97810.88
2023-02-14T23:30:03.942Z,97806.03
2023-02-14T23:32:31.816Z,97790.53
2023-02-14T23:35:00.053Z,97807.97
2023-02-14T23:37:28.060Z,97793.00
2023-02-14T23:39:57.223Z,97808.38
2023-02-14T23:42:24.944Z,97790.94
2023-02-14T23:44:52.789Z,97790.09
2023-02-14T23:47:20.988Z,97804.38
2023-02-14T23:49:48.722Z,97798.84
2023-02-14T23:52:16.433Z,97791.19
2023-02-14T23:54:44.186Z,97794.69
2023-02-14T23:57:13.351Z,97798.53
2023-02-14T23:59:41.155Z,97795.34
